createdAt,value
2024-04-17T00:00:44.723Z,5.68
2024-04-17T00:03:20.892Z,5.07
2024-04-17T00:05:53.734Z,5.50
2024-04-17T00:08:29.124Z,5.32
2024-04-17T00:11:04.894Z,4.63
2024-04-17T00:13:40.439Z,4.80
2024-04-17T00:18:48.470Z,4.32
2024-04-17T00:21:21.211Z,4.63
2024-04-17T00:23:57.154Z,4.90
2024-04-17T00:26:32.522Z,4.07
2024-04-17T00:29:07.921Z,4.43
2024-04-17T00:34:16.431Z,3.85
2024-04-17T00:36:49.130Z,5.28
2024-04-17T00:39:24.575Z,4.75
2024-04-17T00:44:35.461Z,3.40
2024-04-17T00:47:11.223Z,4.57
2024-04-17T00:49:47.121Z,4.38
2024-04-17T00:52:20.329Z,4.63
2024-04-17T00:54:56.411Z,4.03
2024-04-17T00:57:35.142Z,4.97
2024-04-17T01:00:11.561Z,4.15
2024-04-17T01:02:44.418Z,4.40
2024-04-17T01:05:20.765Z,4.10
2024-04-17T01:07:53.719Z,3.70
2024-04-17T01:10:29.196Z,4.25
2024-04-17T01:15:40.482Z,3.65
2024-04-17T01:18:14.373Z,3.70
2024-04-17T01:20:49.829Z,3.70
2024-04-17T01:23:22.740Z,4.20
2024-04-17T01:26:00.810Z,3.72
2024-04-17T01:28:33.628Z,4.45
2024-04-17T01:31:09.000Z,4.22
2024-04-17T01:33:44.428Z,3.75
2024-04-17T01:36:17.318Z,4.38
2024-04-17T01:38:52.778Z,5.38
2024-04-17T01:44:03.560Z,5.78
2024-04-17T01:46:36.474Z,4.53
2024-04-17T01:49:12.138Z,4.65
2024-04-17T01:51:44.947Z,4.75
2024-04-17T01:54:20.325Z,4.53
2024-04-17T01:56:55.839Z,4.10
2024-04-17T02:02:03.804Z,4.85
2024-04-17T02:04:39.244Z,4.22
2024-04-17T02:07:12.147Z,5.00
2024-04-17T02:09:47.548Z,4.78
2024-04-17T02:12:23.039Z,5.18
2024-04-17T02:14:58.460Z,4.80
2024-04-17T02:17:31.251Z,4.82
2024-04-17T02:20:09.199Z,4.97
2024-04-17T02:22:42.042Z,5.38
2024-04-17T02:25:17.640Z,4.80
2024-04-17T02:30:28.306Z,4.85
2024-04-17T02:33:01.211Z,4.30
2024-04-17T02:35:36.688Z,4.70
2024-04-17T02:38:09.495Z,4.18
2024-04-17T02:40:44.888Z,3.88
2024-04-17T02:43:20.387Z,4.20
2024-04-17T02:48:28.450Z,3.50
2024-04-17T02:51:03.907Z,4.10
2024-04-17T02:53:36.631Z,4.40
2024-04-17T02:56:12.158Z,4.28
2024-04-17T03:01:22.960Z,4.30
2024-04-17T03:03:58.462Z,3.40
2024-04-17T03:09:08.389Z,3.60
2024-04-17T03:11:42.250Z,3.28
2024-04-17T03:14:20.278Z,3.78
2024-04-17T03:16:53.152Z,3.47
2024-04-17T03:19:28.584Z,3.75
2024-04-17T03:22:01.431Z,4.00
2024-04-17T03:24:36.841Z,3.60
2024-04-17T03:27:09.615Z,3.58
2024-04-17T03:29:47.627Z,3.60
2024-04-17T03:32:20.410Z,4.75
2024-04-17T03:34:55.948Z,4.50
2024-04-17T03:37:31.457Z,4.20
2024-04-17T03:40:07.543Z,4.47
2024-04-17T03:42:43.936Z,4.07
2024-04-17T03:45:22.236Z,3.97
2024-04-17T03:47:57.684Z,4.30
2024-04-17T03:53:05.656Z,4.10
2024-04-17T03:55:41.075Z,4.13
2024-04-17T03:58:13.847Z,4.20
2024-04-17T04:00:52.189Z,4.13
2024-04-17T04:03:24.958Z,4.35
2024-04-17T04:06:00.752Z,4.70
2024-04-17T04:08:33.565Z,5.47
2024-04-17T04:11:09.031Z,5.10
2024-04-17T04:16:19.750Z,4.90
2024-04-17T04:18:52.462Z,4.90
2024-04-17T04:21:27.878Z,4.93
2024-04-17T04:24:00.752Z,4.13
2024-04-17T04:26:36.180Z,4.75
2024-04-17T04:29:08.928Z,4.95
2024-04-17T04:31:47.057Z,4.07
2024-04-17T04:34:19.800Z,3.55
2024-04-17T04:36:55.215Z,4.25
2024-04-17T04:39:27.945Z,4.25
2024-04-17T04:42:04.708Z,4.43
2024-04-17T04:44:37.512Z,3.38
2024-04-17T04:47:16.254Z,4.15
2024-04-17T04:49:49.205Z,4.40
2024-04-17T04:52:24.651Z,4.57
2024-04-17T04:54:57.449Z,4.28
2024-04-17T04:57:32.964Z,4.35
2024-04-17T05:00:07.986Z,4.15
2024-04-17T05:02:46.219Z,4.80
2024-04-17T05:05:19.119Z,4.53
2024-04-17T05:07:57.621Z,3.90
2024-04-17T05:10:30.956Z,4.68
2024-04-17T05:13:06.625Z,4.65
2024-04-17T05:15:39.589Z,4.75
2024-04-17T05:18:17.808Z,3.80
2024-04-17T05:20:50.603Z,4.53
2024-04-17T05:23:26.187Z,4.13
2024-04-17T05:25:59.264Z,4.47
2024-04-17T05:28:36.564Z,5.45
2024-04-17T05:31:09.978Z,4.47
2024-04-17T05:33:51.238Z,7.50
2024-04-17T05:36:24.918Z,8.60
2024-04-17T05:39:03.457Z,10.57
2024-04-17T05:41:36.757Z,6.45
2024-04-17T05:44:12.232Z,5.38
2024-04-17T05:49:23.980Z,3.60
2024-04-17T05:51:56.778Z,4.28
2024-04-17T05:54:32.197Z,5.35
2024-04-17T05:57:05.330Z,4.05
2024-04-17T05:59:40.774Z,3.85
2024-04-17T06:04:55.526Z,3.35
2024-04-17T06:07:28.363Z,4.28
2024-04-17T06:10:03.736Z,3.53
2024-04-17T06:15:11.979Z,3.75
2024-04-17T06:17:44.780Z,3.88
2024-04-17T06:20:22.870Z,4.28
2024-04-17T06:22:55.709Z,4.18
2024-04-17T06:25:31.273Z,3.95
2024-04-17T06:28:04.464Z,4.22
2024-04-17T06:30:44.746Z,4.00
2024-04-17T06:33:18.453Z,3.85
2024-04-17T06:35:57.720Z,4.63
2024-04-17T06:38:30.639Z,3.88
2024-04-17T06:41:06.390Z,3.90
2024-04-17T06:43:39.777Z,4.00
2024-04-17T06:46:15.190Z,4.22
2024-04-17T06:51:25.762Z,2.90
2024-04-17T06:53:58.554Z,2.63
2024-04-17T06:56:34.070Z,2.92
2024-04-17T06:59:06.837Z,2.75
2024-04-17T07:01:42.394Z,3.00
2024-04-17T07:04:15.202Z,2.92
2024-04-17T07:06:53.297Z,3.10
2024-04-17T07:09:26.063Z,2.80
2024-04-17T07:12:01.519Z,2.85
2024-04-17T07:14:37.094Z,2.83
2024-04-17T07:17:10.239Z,2.95
2024-04-17T07:19:45.645Z,2.70
2024-04-17T07:22:21.087Z,3.40
2024-04-17T07:24:56.499Z,3.35
2024-04-17T07:27:29.303Z,2.72
2024-04-17T07:30:04.679Z,2.58
2024-04-17T07:32:37.619Z,2.70
2024-04-17T07:35:13.115Z,2.03
2024-04-17T07:37:48.791Z,2.20
2024-04-17T07:40:24.280Z,1.75
2024-04-17T07:42:57.226Z,1.55
2024-04-17T07:45:32.797Z,1.50
2024-04-17T07:48:09.151Z,1.50
2024-04-17T07:50:45.257Z,1.73
2024-04-17T07:53:23.873Z,1.65
2024-04-17T07:55:56.906Z,1.83
2024-04-17T07:58:32.579Z,1.80
2024-04-17T08:01:05.807Z,2.33
2024-04-17T08:03:41.621Z,2.53
2024-04-17T08:06:25.025Z,2.75
2024-04-17T08:09:04.220Z,2.65
2024-04-17T08:11:39.112Z,3.10
2024-04-17T08:14:14.885Z,3.22
2024-04-17T08:16:49.773Z,2.75
2024-04-17T08:19:25.399Z,2.88
2024-04-17T08:21:58.255Z,2.30
2024-04-17T08:24:36.360Z,2.20
2024-04-17T08:27:09.173Z,2.47
2024-04-17T08:29:44.615Z,2.35
2024-04-17T08:32:17.411Z,2.63
2024-04-17T08:34:52.950Z,3.20
2024-04-17T08:37:25.889Z,2.40
2024-04-17T08:40:04.000Z,2.85
2024-04-17T08:42:37.495Z,2.72
2024-04-17T08:45:14.366Z,3.00
2024-04-17T08:47:47.793Z,3.28
2024-04-17T08:50:26.117Z,3.03
2024-04-17T08:53:01.141Z,3.25
2024-04-17T08:55:39.900Z,3.00
2024-04-17T08:58:13.149Z,2.92
2024-04-17T09:00:53.579Z,2.75
2024-04-17T09:03:28.472Z,3.05
2024-04-17T09:06:04.710Z,3.65
2024-04-17T09:08:38.245Z,3.92
2024-04-17T09:11:16.641Z,3.00
2024-04-17T09:17:06.858Z,3.05
2024-04-17T09:19:39.860Z,2.67
2024-04-17T09:22:15.391Z,3.40
2024-04-17T09:24:48.159Z,2.75
2024-04-17T09:27:26.296Z,2.80
2024-04-17T09:29:59.075Z,2.83
2024-04-17T09:32:34.744Z,3.50
2024-04-17T09:35:11.025Z,3.65
2024-04-17T09:37:46.508Z,3.03
2024-04-17T09:40:19.370Z,3.75
2024-04-17T09:43:12.112Z,3.70
2024-04-17T09:45:58.911Z,3.90
2024-04-17T09:48:34.771Z,3.25
2024-04-17T09:51:09.031Z,3.15
2024-04-17T09:53:54.137Z,2.97
2024-04-17T09:56:28.313Z,3.75
2024-04-17T09:59:08.869Z,3.95
2024-04-17T10:01:42.859Z,4.10
2024-04-17T10:04:20.234Z,4.20
2024-04-17T10:06:54.232Z,3.83
2024-04-17T10:09:32.824Z,4.05
2024-04-17T10:12:07.661Z,4.05
2024-04-17T10:14:45.818Z,3.70
2024-04-17T10:17:30.061Z,3.30
2024-04-17T10:20:28.630Z,3.40
2024-04-17T10:23:04.135Z,3.95
2024-04-17T10:25:49.967Z,3.97
2024-04-17T10:28:23.498Z,3.70
2024-04-17T10:31:05.514Z,3.70
2024-04-17T10:33:40.846Z,3.00
2024-04-17T10:36:16.364Z,2.92
2024-04-17T10:38:49.787Z,3.65
2024-04-17T10:41:31.675Z,2.70
2024-04-17T10:44:04.589Z,2.63
2024-04-17T10:46:42.823Z,2.15
2024-04-17T10:49:18.740Z,2.13
2024-04-17T10:51:54.244Z,2.08
2024-04-17T10:54:27.978Z,1.80
2024-04-17T10:57:05.946Z,1.70
2024-04-17T10:59:45.088Z,1.50
2024-04-17T11:02:25.805Z,1.80
2024-04-17T11:04:58.749Z,1.55
2024-04-17T11:07:34.619Z,2.05
2024-04-17T11:10:12.225Z,1.42
2024-04-17T11:12:47.670Z,1.40
2024-04-17T11:15:20.967Z,1.35
2024-04-17T11:17:59.123Z,1.33
2024-04-17T11:20:31.950Z,1.60
2024-04-17T11:23:08.200Z,1.25
2024-04-17T11:25:42.995Z,1.65
2024-04-17T11:28:18.722Z,1.50
2024-04-17T11:30:51.798Z,1.98
2024-04-17T11:33:31.308Z,1.30
2024-04-17T11:36:05.771Z,1.30
2024-04-17T11:38:41.165Z,1.67
2024-04-17T11:41:16.475Z,1.30
2024-04-17T11:43:55.694Z,1.63
2024-04-17T11:46:28.633Z,1.65
2024-04-17T11:49:06.971Z,1.58
2024-04-17T11:51:40.014Z,2.00
2024-04-17T11:54:15.460Z,1.73
2024-04-17T11:56:48.385Z,1.60
2024-04-17T11:59:25.717Z,1.42
2024-04-17T12:02:00.269Z,1.70
2024-04-17T12:04:40.524Z,1.23
2024-04-17T12:07:16.928Z,1.30
2024-04-17T12:09:53.250Z,1.30
2024-04-17T12:12:26.236Z,1.35
2024-04-17T12:15:02.384Z,1.45
2024-04-17T12:17:35.345Z,1.10
2024-04-17T12:20:13.902Z,1.80
2024-04-17T12:22:49.840Z,1.50
2024-04-17T12:25:41.358Z,1.60
2024-04-17T12:28:16.955Z,1.73
2024-04-17T12:30:52.501Z,1.77
2024-04-17T12:33:29.200Z,1.30
2024-04-17T12:36:08.744Z,1.65
2024-04-17T12:38:44.338Z,2.05
2024-04-17T12:41:20.777Z,1.90
2024-04-17T12:43:57.245Z,1.55
2024-04-17T12:46:40.551Z,1.80
2024-04-17T12:49:16.767Z,2.05
2024-04-17T12:51:55.072Z,1.65
2024-04-17T12:54:31.609Z,2.15
2024-04-17T12:57:11.123Z,1.80
2024-04-17T12:59:48.036Z,2.10
2024-04-17T13:02:36.288Z,2.03
2024-04-17T13:05:15.623Z,1.92
2024-04-17T13:07:51.370Z,2.40
2024-04-17T13:10:29.159Z,2.20
2024-04-17T13:13:02.331Z,2.30
2024-04-17T13:15:38.872Z,2.60
2024-04-17T13:18:12.012Z,2.10
2024-04-17T13:20:56.048Z,2.78
2024-04-17T13:23:32.153Z,2.40
2024-04-17T13:26:08.241Z,2.22
2024-04-17T13:28:41.369Z,2.60
2024-04-17T13:31:17.051Z,2.45
2024-04-17T13:33:50.335Z,2.22
2024-04-17T13:36:25.855Z,2.08
2024-04-17T13:39:01.536Z,1.88
2024-04-17T13:41:37.675Z,1.95
2024-04-17T13:44:10.915Z,2.33
2024-04-17T13:46:46.713Z,2.90
2024-04-17T13:49:19.688Z,2.47
2024-04-17T13:51:55.228Z,2.25
2024-04-17T13:54:30.868Z,2.28
2024-04-17T13:57:06.688Z,2.20
2024-04-17T13:59:39.652Z,2.10
2024-04-17T14:02:15.364Z,2.20
2024-04-17T14:04:48.272Z,3.33
2024-04-17T14:07:23.731Z,2.35
2024-04-17T14:09:59.307Z,2.45
2024-04-17T14:12:34.922Z,2.78
2024-04-17T14:15:08.656Z,2.55
2024-04-17T14:17:44.382Z,2.83
2024-04-17T14:20:21.358Z,2.08
2024-04-17T14:22:54.322Z,2.60
2024-04-17T14:25:32.670Z,2.22
2024-04-17T14:28:07.218Z,2.78
2024-04-17T14:33:16.306Z,2.97
2024-04-17T14:35:52.087Z,3.33
2024-04-17T14:38:27.954Z,2.90
2024-04-17T14:41:05.461Z,4.00
2024-04-17T14:43:41.098Z,3.53
2024-04-17T14:46:14.575Z,3.60
2024-04-17T14:48:50.414Z,3.85
2024-04-17T14:51:23.479Z,3.22
2024-04-17T14:53:58.863Z,3.47
2024-04-17T14:56:34.371Z,4.07
2024-04-17T14:59:10.628Z,3.60
2024-04-17T15:01:43.766Z,3.60
2024-04-17T15:04:19.279Z,4.63
2024-04-17T15:06:53.918Z,4.82
2024-04-17T15:09:29.691Z,5.00
2024-04-17T15:12:05.970Z,6.55
2024-04-17T15:14:42.022Z,4.70
2024-04-17T15:17:14.935Z,7.10
2024-04-17T15:19:50.319Z,6.75
2024-04-17T15:22:23.154Z,7.30
2024-04-17T15:24:59.356Z,6.88
2024-04-17T15:27:38.020Z,7.72
2024-04-17T15:30:14.490Z,6.45
2024-04-17T15:32:47.318Z,5.50
2024-04-17T15:35:23.021Z,6.32
2024-04-17T15:37:55.890Z,6.22
2024-04-17T15:40:31.259Z,6.28
2024-04-17T15:43:06.733Z,6.57
2024-04-17T15:45:42.294Z,6.60
2024-04-17T15:48:15.330Z,6.32
2024-04-17T15:50:54.545Z,6.03
2024-04-17T15:53:28.238Z,5.93
2024-04-17T15:56:03.701Z,5.70
2024-04-17T15:58:39.141Z,5.68
2024-04-17T16:01:17.241Z,6.30
2024-04-17T16:03:52.836Z,5.35
2024-04-17T16:06:28.829Z,5.10
2024-04-17T16:09:01.844Z,3.92
2024-04-17T16:11:40.366Z,5.00
2024-04-17T16:14:37.560Z,4.40
2024-04-17T16:17:10.447Z,4.28
2024-04-17T16:19:46.303Z,4.57
2024-04-17T16:22:19.218Z,3.88
2024-04-17T16:24:55.543Z,3.85
2024-04-17T16:27:28.583Z,3.88
2024-04-17T16:30:07.204Z,3.70
2024-04-17T16:32:41.269Z,4.28
2024-04-17T16:35:16.895Z,4.85
2024-04-17T16:37:52.346Z,4.10
2024-04-17T16:40:25.538Z,3.88
2024-04-17T16:43:02.933Z,3.60
2024-04-17T16:45:38.609Z,2.88
2024-04-17T16:48:14.159Z,3.70
2024-04-17T16:50:55.594Z,3.92
2024-04-17T16:53:31.268Z,3.42
2024-04-17T16:56:04.748Z,3.47
2024-04-17T16:58:41.456Z,3.47
2024-04-17T17:01:23.696Z,3.95
2024-04-17T17:04:03.552Z,3.38
2024-04-17T17:06:36.801Z,3.28
2024-04-17T17:09:12.485Z,3.40
2024-04-17T17:11:45.532Z,3.70
2024-04-17T17:14:21.248Z,3.92
2024-04-17T17:16:58.201Z,3.50
2024-04-17T17:19:34.061Z,4.43
2024-04-17T17:22:07.139Z,4.00
2024-04-17T17:24:42.768Z,4.55
2024-04-17T17:27:18.797Z,8.70
2024-04-17T17:29:58.484Z,10.10
2024-04-17T17:32:36.694Z,8.02
2024-04-17T17:35:09.692Z,6.15
2024-04-17T17:37:47.530Z,7.50
2024-04-17T17:40:24.114Z,6.45
2024-04-17T17:43:01.068Z,5.78
2024-04-17T17:45:33.961Z,6.57
2024-04-17T17:48:12.400Z,5.85
2024-04-17T17:50:50.114Z,5.70
2024-04-17T17:53:25.665Z,6.43
2024-04-17T17:56:10.507Z,9.07
2024-04-17T17:58:48.362Z,8.68
2024-04-17T18:01:25.013Z,11.00
2024-04-17T18:04:08.176Z,8.50
2024-04-17T18:06:41.095Z,12.13
2024-04-17T18:09:17.246Z,10.73
2024-04-17T18:11:50.136Z,15.45
2024-04-17T18:14:25.727Z,15.43
2024-04-17T18:16:58.568Z,17.65
2024-04-17T18:19:40.264Z,15.80
2024-04-17T18:24:51.985Z,15.65
2024-04-17T18:27:24.860Z,12.30
2024-04-17T18:30:00.528Z,14.77
2024-04-17T18:32:33.453Z,10.55
2024-04-17T18:35:11.735Z,12.27
2024-04-17T18:37:44.926Z,11.60
2024-04-17T18:40:20.492Z,11.65
2024-04-17T18:42:53.355Z,10.38
2024-04-17T18:45:36.011Z,12.32
2024-04-17T18:48:09.093Z,11.07
2024-04-17T18:53:22.309Z,9.63
2024-04-17T18:56:05.083Z,13.00
2024-04-17T18:58:37.922Z,10.93
2024-04-17T19:01:15.143Z,12.27
2024-04-17T19:03:48.441Z,12.98
2024-04-17T19:06:26.870Z,17.52
2024-04-17T19:08:59.820Z,17.25
2024-04-17T19:11:41.742Z,19.17
2024-04-17T19:14:33.278Z,15.70
2024-04-17T19:17:08.799Z,13.98
2024-04-17T19:19:43.096Z,16.58
2024-04-17T19:22:21.163Z,16.27
2024-04-17T19:24:54.593Z,18.20
2024-04-17T19:27:30.326Z,16.17
2024-04-17T19:32:46.885Z,20.00
2024-04-17T19:35:23.775Z,20.50
2024-04-17T19:38:04.842Z,22.60
2024-04-17T19:40:37.707Z,21.27
2024-04-17T19:43:13.161Z,23.13
2024-04-17T19:45:49.021Z,23.25
2024-04-17T19:48:24.856Z,21.88
2024-04-17T19:50:58.921Z,24.88
2024-04-17T19:53:37.104Z,22.17
2024-04-17T19:59:03.922Z,19.85
2024-04-17T20:01:36.985Z,17.23
2024-04-17T20:04:12.647Z,21.17
2024-04-17T20:06:45.686Z,16.50
2024-04-17T20:09:23.931Z,18.27
2024-04-17T20:11:56.902Z,16.35
2024-04-17T20:14:32.483Z,17.40
2024-04-17T20:17:05.686Z,17.13
2024-04-17T20:19:41.477Z,17.70
2024-04-17T20:22:14.523Z,17.38
2024-04-17T20:24:54.015Z,20.05
2024-04-17T20:27:28.749Z,18.17
2024-04-17T20:30:05.050Z,18.17
2024-04-17T20:32:38.190Z,16.63
2024-04-17T20:35:13.955Z,17.90
2024-04-17T20:37:46.806Z,19.67
2024-04-17T20:40:25.219Z,20.65
2024-04-17T20:42:58.097Z,26.05
2024-04-17T20:45:33.694Z,25.45
2024-04-17T20:48:07.047Z,23.40
2024-04-17T20:50:42.795Z,22.73
2024-04-17T20:53:16.379Z,25.38
2024-04-17T20:56:01.205Z,27.23
2024-04-17T20:58:34.298Z,21.40
2024-04-17T21:01:11.458Z,34.80
2024-04-17T21:03:44.764Z,38.95
2024-04-17T21:06:20.462Z,36.08
2024-04-17T21:08:53.466Z,29.35
2024-04-17T21:11:31.784Z,27.13
2024-04-17T21:14:04.620Z,29.60
2024-04-17T21:16:40.126Z,35.97
2024-04-17T21:19:12.986Z,33.15
2024-04-17T21:21:48.566Z,35.97
2024-04-17T21:24:22.056Z,35.42
2024-04-17T21:27:00.386Z,26.73
2024-04-17T21:29:33.287Z,18.77
2024-04-17T21:32:09.469Z,14.00
2024-04-17T21:34:42.263Z,12.48
2024-04-17T21:37:19.567Z,11.05
2024-04-17T21:39:55.039Z,10.55
2024-04-17T21:42:33.151Z,9.40
2024-04-17T21:45:06.352Z,9.45
2024-04-17T21:47:41.796Z,9.27
2024-04-17T21:50:14.803Z,8.60
2024-04-17T21:52:50.224Z,12.38
2024-04-17T21:55:23.132Z,12.77
2024-04-17T21:58:01.371Z,9.23
2024-04-17T22:00:34.476Z,10.05
2024-04-17T22:03:10.506Z,10.60
2024-04-17T22:05:43.501Z,11.85
2024-04-17T22:08:19.691Z,10.60
2024-04-17T22:10:53.039Z,11.13
2024-04-17T22:13:31.442Z,14.45
2024-04-17T22:16:04.749Z,21.02
2024-04-17T22:18:40.162Z,18.38
2024-04-17T22:21:13.185Z,19.55
2024-04-17T22:23:48.815Z,20.90
2024-04-17T22:26:21.695Z,19.10
2024-04-17T22:28:59.946Z,16.40
2024-04-17T22:31:32.834Z,22.05
2024-04-17T22:34:08.366Z,12.13
2024-04-17T22:36:41.250Z,11.63
2024-04-17T22:39:16.808Z,10.75
2024-04-17T22:41:50.336Z,10.35
2024-04-17T22:44:28.387Z,11.23
2024-04-17T22:47:01.187Z,8.52
2024-04-17T22:49:36.716Z,7.43
2024-04-17T22:52:09.523Z,5.68
2024-04-17T22:54:45.270Z,5.15
2024-04-17T22:57:18.222Z,5.18
2024-04-17T22:59:56.816Z,4.60
2024-04-17T23:02:29.694Z,4.60
2024-04-17T23:05:05.059Z,4.70
2024-04-17T23:07:37.868Z,4.53
2024-04-17T23:10:14.609Z,4.63
2024-04-17T23:12:47.513Z,4.35
2024-04-17T23:15:28.941Z,4.32
2024-04-17T23:18:01.944Z,4.15
2024-04-17T23:20:37.356Z,4.50
2024-04-17T23:23:10.659Z,5.05
2024-04-17T23:25:46.062Z,5.22
2024-04-17T23:28:18.847Z,4.90
2024-04-17T23:30:57.038Z,5.70
2024-04-17T23:33:29.863Z,5.10
2024-04-17T23:36:05.380Z,5.28
2024-04-17T23:38:38.143Z,4.88
2024-04-17T23:41:13.621Z,4.63
2024-04-17T23:43:47.406Z,4.40
2024-04-17T23:46:25.524Z,4.85
2024-04-17T23:48:58.400Z,4.63
2024-04-17T23:51:34.330Z,5.30
2024-04-17T23:54:07.119Z,4.78
2024-04-17T23:56:42.522Z,4.85
2024-04-17T23:59:15.289Z,5.30
